Air Resources Laboratory banner image
Air Resources Laboratory web site National Oceanic and Atmospheric Administration (NOAA)

ak metar


PAAQ 161253Z AUTO 08005KT 10SM BKN100 OVC120 12/06 A2980 RMK AO2 SLP094
 T01220056 TSNO $=
PABA 161252Z AUTO 27006KT 10SM FEW005 BKN020 OVC026 03/02 A2987 RMK AO2 SLP122
 T00280022=
PABE 161253Z 19006KT 10SM SCT010 OVC030 08/07 A2970 RMK AO2 SLP059 T00780072=
PABI 161253Z AUTO 00000KT 10SM FEW100 08/06 A2982 RMK AO2 SLP101 T00780061 TSNO=
PABL 161256Z AUTO 00000KT 10SM OVC075 02/02 A2980 RMK AO2 SLP092 T00220017
 FZRANO=
PABT 161253Z 00000KT 10SM FEW030 BKN110 BKN130 04/03 A2982 RMK AO2 SLP107
 T00440033 $=
PABV 161256Z AUTO 00000KT 10SM -RA SCT075 OVC095 11/10 A2981 RMK AO2 RAB55
 SLP099 P0000 T01110100=
PACD 161253Z AUTO 30008KT 10SM OVC042 08/08 A2990 RMK AO2 SLP125 T00830078 TSNO
 $=
PACV 161253Z 08005KT 10SM -RA BKN040 OVC050 11/08 A2986 RMK AO2 SLP113 P0001
 T01060083=
PADE 161253Z AUTO 20007KT 10SM FEW034 BKN055 01/01 A2977 RMK AO2 SLP083
 T00110011 TSNO $=
PADK 161256Z AUTO 19019G27KT OVC028 12/11 A2980 RMK AO2 PK WND 19027/1252
 SLP090 P0005 T01220111 PWINO $=
PADL 161256Z AUTO 00000KT 10SM OVC065 11/10 A2973 RMK AO2 SLP068 T01060100=
PADQ 161253Z AUTO 35009KT 320V020 7SM RA OVC019 13/11 A2964 RMK AO2 SLP036
 P0012 T01330106 TSNO=
PADU 161256Z AUTO 00000KT 10SM CLR 08/05 A2997 RMK AO2 SLP152 T00780050 PNO $=
PAED 161256Z 00000KT 10SM -RA FEW046 BKN070 11/09 A2977 RMK AO2A DZB35E47RAB47
 SLP077 P0000 T01130090 FZRANO $=
PAEG 161253Z AUTO 00000KT 10SM CLR 06/04 A2982 RMK AO2 SLP101 T00610044 TSNO=
PAEI 161256Z 04005KT 10SM BCFG SCT002 07/07 A2975 RMK AO2A VIS N 1 SLP079
 T00720066 $=
PAEN 161253Z AUTO 05005KT 10SM -RA OVC070 11/11 A2977 RMK AO2 RAB31 SLP083
 P0000 T01060106 TSNO=
PAFA 161253Z 00000KT 10SM BKN075 12/09 A2977 RMK AO2 SLP084 T01170094 $=
PAFB 161258Z 00000KT 10SM BKN080 10/09 A2977 RMK AO2A SLP087 T00960093 $=
PAFE 161256Z AUTO 00000KT 10SM OVC036 12/11 A3000 RMK AO2 SLP171 T01170111 $=
PAGA 161256Z AUTO 10SM -RA FEW008 BKN032 OVC041 07/07 A2975 RMK AO2 SLP077
 P0001 T00720067 $=
PAGK 161253Z AUTO 00000KT 10SM FEW100 04/03 A2987 RMK AO2 SLP122 T00390028 TSNO
 $=
PAGL 161256Z AUTO 34008KT 10SM BKN044 BKN055 04/02 A2977 RMK AO2 SLP077
 T00440022 PWINO $=
PAGS 161256Z AUTO 00000KT 3/4SM BR OVC003 11/11 A2999 RMK AO2 SLP156 T01060106
 RVRNO=
PAGY 161253Z AUTO 00000KT 3SM BR FEW075 OVC090 11/11 A2999 RMK AO2 SLP156
 T01060106 TSNO=
PAHO 161253Z 05003KT 8SM -RA OVC070 11/11 A2974 RMK AO2 SLP072 P0005 T01110106=
PAHP 161256Z AUTO 02013KT 10SM FEW018 BKN030 OVC040 06/04 A2970 RMK AO2 SLP058
 T00610044 PNO $=
PAHY 161256Z AUTO 10004KT 9SM SCT012 OVC018 14/13 A2996 RMK AO2 SLP144
 T01440133 $=
PAIL 161253Z AUTO 34005KT 10SM CLR 08/07 A2976 RMK AO2 SLP081 T00780072 TSNO=
PAJC 161257Z AUTO 26013G22KT 10SM CLR 11/06 A2983 RMK AO2 SLP100 T01060056 PNO
 $=
PAJN 161253Z 00000KT 10SM SCT002 BKN046 OVC060 12/11 A2999 RMK AO2 SLP154
 T01170106 $=
PAKK 161256Z AUTO 36006KT 10SM BKN031 BKN048 OVC095 04/02 A2972 RMK AO2 SLP072
 T00440022=
PAKN 161254Z AUTO 17006KT 10SM FEW004 OVC031 11/M04 A2971 RMK AO2 SLP062
 T01061044 TSNO $=
PAKP 161256Z AUTO 01004KT 1/4SM FG OVC002 00/00 A2978 RMK AO2 SLP122 T00000000
 FZRANO=
PAKT 161253Z AUTO 12003KT 10SM SCT008 BKN027 OVC042 15/14 A2999 RMK AO2 SLP158
 T01500144 TSNO=
PAKU 161253Z 20005KT 1SM R24/P6000FT BR OVC008 03/03 A2985=
PAKV 161253Z AUTO 00000KT 9SM -RA OVC008 06/05 A2976 RMK AO2 SLP081 P0001
 T00560050 TSNO $=
PAKW 161253Z AUTO 02003KT 10SM OVC031 14/12 A2994 RMK AO2 SLP137 T01440117 TSNO=
PAMC 161253Z 00000KT 10SM -RA BKN055 OVC075 08/07 A2974 RMK AO2 RAB49 SLP074
 P0000 T00830067=
PAMD 161251Z AUTO 09025G33KT 3SM -RA BR OVC003 13/13 A2972 RMK AO2 PK WND
 09033/1242 SLP052 T01280128 PNO $=
PAMH 161256Z AUTO 00000KT 10SM BKN003 OVC032 09/09 A2975 RMK AO2 RAE34 SLP074
 P0000 T00940094=
PAMR 161253Z 00000KT 10SM -RA FEW065 OVC090 12/09 A2979 RMK AO2 RAB37 SLP089
 P0000 T01220094=
PANC 161253Z 10005KT 10SM -RA FEW060 BKN085 12/09 A2979 RMK AO2 RAB47 SLP088
 P0000 T01220089=
PANI 161256Z AUTO 15006KT 10SM BKN024 OVC033 08/07 A2976 RMK AO2 RAE42 SLP070
 P0001 T00780072 $=
PANN 161253Z AUTO 00000KT 1/2SM FG BKN001 OVC005 08/07 A2975 RMK AO2 SLP079
 T00830072 TSNO=
PANV 161256Z AUTO 11005KT 10SM -RA OVC003 07/07 A2968 RMK AO2 SLP112 P0001
 T00720067 TSNO=
PAOM 161253Z AUTO 36007KT 10SM CLR 03/00 A2979 RMK AO2 SLP089 T00280000 TSNO=
PAOR 161253Z 00000KT 10SM SCT070 09/M09 A2982 RMK AO2 SLP099 T00891094 $=
PAOT 161253Z AUTO 03006KT 10SM OVC085 03/02 A2980 RMK AO2 SLP092 T00330017 TSNO=
PAPB 161253Z AUTO 23007KT 8SM FEW010 OVC016 08/07 A2988 RMK AO2 SLP107
 T00780072 TSNO=
PAPG 161256Z AUTO 09003KT 10SM FEW030 BKN047 OVC100 10/10 A2999 RMK AO2 SLP159
 T01000100=
PAPH 161256Z AUTO 29008KT 10SM SCT008 SCT012 OVC025 09/08 A2984 RMK AO2 SLP104
 T00940083=
PAPR 161252Z 34004KT 10SM VCFG FEW035 OVC140 03/ A2978=
PAQT 161253Z AUTO 23003KT 1 3/4SM BR OVC006 03/02 A2986 RMK AO2 SLP114
 T00330017 TSNO $=
PASA 161256Z AUTO 01017G22KT 10SM OVC008 04/03 A2996 RMK AO2 SLP144 T00390028=
PASC 161253Z 00000KT 10SM SCT005 BKN040 03/02 A2984 RMK AO2 SLP106 T00280022=
PASD 161256Z AUTO 36010KT 10SM BKN039 10/06 A2984 RMK AO2 SLP108 T01000056 PNO
 $=
PASH 161256Z AUTO 36021KT 9SM BKN021 BKN028 06/03 A2987 RMK AO2 RAE00 SLP115
 T00610028 PNO $=
PASI 161253Z 00000KT 10SM OVC100 13/11 A2991 RMK AO2 SLP129 T01330111=
PASK 161256Z AUTO 05009KT 10SM CLR 04/03 A2982 RMK AO2 SLP095 T00440028 PNO $=
PASL 161256Z AUTO 00000KT 10SM -RA FEW004 OVC028 08/08 A2978 RMK AO2 SLP075
 P0002 T00780078=
PASM 161256Z AUTO 01007KT 8SM -RA OVC003 06/06 A2968 RMK AO2 SLP058 P0002
 T00560056=
PASN 161253Z AUTO 24011KT 5SM BR OVC002 08/08 A2985 RMK AO2 SLP109 T00830078
 TSNO $=
PASO 161253Z AUTO 00000KT 3SM -RA BR FEW010 FEW055 OVC070 11/11 A2974 RMK AO2
 SLP070 P0008 T01060106 TSNO=
PASV 161306Z AUTO 00000KT 2 1/2SM -RA BR BKN007 09/09 A2974 RMK AO2 SLP071 $=
PASX 161256Z AUTO 10003KT 10SM -RA OVC055 11/10 A2980 RMK AO2 RAB09 SLP095
 P0000 T01110100=
PATA 161252Z AUTO 03003KT 10SM -RA BKN037 BKN048 OVC090 07/M01 A2978 RMK AO2
 RAB10 SLP087 P0001 T00721011 TSNO $=
PATK 161253Z AUTO 02003KT 10SM BKN085 OVC110 11/10 A2981 RMK AO2 SLP095
 T01110100 TSNO=
PAUN 161256Z AUTO 08004KT 10SM -RA OVC049 05/04 A2974 RMK AO2 SLP075 T00500044
 PNO $=
PAVL 161253Z AUTO 02016KT 10SM OVC075 03/01 A2984 RMK AO2 SLP106 T00330011 TSNO=
PAWD 161253Z AUTO 34007KT 10SM -RA OVC070 11/11 A2977 RMK AO2 SLP082 P0002
 T01110111 TSNO=
PAWG 161256Z AUTO 11004KT 10SM SCT026 BKN033 OVC050 14/13 A2999 RMK AO2 RAE10
 SLP156 P0000 T01390133 TSNO $=
PAWI 161253Z AUTO 03011KT 7SM UP BKN009 OVC019 03/01 A2989 RMK AO2 UPB47 SLP122
 P0000 T00280011 TSNO $=
PAWN 161256Z AUTO 36006KT 10SM OVC100 02/M01 A2984 RMK AO2 SLP118 T00221006
 FZRANO=
PAWS 161256Z AUTO 07006KT 10SM FEW090 BKN110 12/06 A2982 RMK AO2 SLP099
 T01170061=
PAYA 161253Z AUTO 08003KT 10SM SCT036 OVC050 11/11 A2994 RMK AO2 SLP138
 T01110106 TSNO $=
PAZK 161256Z AUTO 00000KT 10SM -RA OVC070 06/04 A2983 RMK AO2 RAB33 SLP120
 P0000 T00610044=
PPIZ 161256Z AUTO 02009KT 10SM -RA BKN055 OVC070 02/01 A2993 RMK AO2 UPB54E56
 SLP137 T00170011 FZRANO PNO $=